createdAt,value
2023-03-28T00:01:38.615Z,95808.09
2023-03-28T00:04:05.296Z,95804.50
2023-03-28T00:06:32.128Z,95823.25
2023-03-28T00:08:58.675Z,95816.69
2023-03-28T00:11:25.217Z,95815.75
2023-03-28T00:14:00.120Z,95823.25
2023-03-28T00:16:33.158Z,95822.53
2023-03-28T00:19:06.157Z,95825.72
2023-03-28T00:21:36.390Z,95829.84
2023-03-28T00:24:05.267Z,95823.31
2023-03-28T00:26:36.086Z,95825.78
2023-03-28T00:29:05.874Z,95836.16
2023-03-28T00:31:34.835Z,95833.16
2023-03-28T00:34:02.101Z,95837.59
2023-03-28T00:36:29.245Z,95842.69
2023-03-28T00:38:57.836Z,95839.75
2023-03-28T00:41:30.964Z,95845.44
2023-03-28T00:43:58.587Z,95854.59
2023-03-28T00:46:36.643Z,95848.28
2023-03-28T00:49:17.586Z,95844.94
2023-03-28T00:51:53.629Z,95846.63
2023-03-28T00:54:20.848Z,95849.94
2023-03-28T00:56:52.138Z,95851.44
2023-03-28T00:59:21.494Z,95854.84
2023-03-28T01:01:49.405Z,95853.81
2023-03-28T01:04:20.319Z,95847.59
2023-03-28T01:06:54.545Z,95844.69
2023-03-28T01:09:24.083Z,95845.34
2023-03-28T01:11:54.964Z,95848.03
2023-03-28T01:14:24.924Z,95845.56
2023-03-28T01:16:56.615Z,95847.81
2023-03-28T01:20:03.155Z,95846.66
2023-03-28T01:22:56.315Z,95849.69
2023-03-28T01:25:48.411Z,95851.66
2023-03-28T01:28:49.536Z,95858.19
2023-03-28T01:31:48.600Z,95857.41
2023-03-28T01:35:02.663Z,95863.19
2023-03-28T01:37:38.753Z,95857.69
2023-03-28T01:40:35.813Z,95860.06
2023-03-28T01:43:20.675Z,95865.91
2023-03-28T01:45:48.190Z,95859.66
2023-03-28T01:48:37.218Z,95863.13
2023-03-28T01:51:06.810Z,95870.06
2023-03-28T01:54:02.432Z,95868.00
2023-03-28T01:56:42.146Z,95871.81
2023-03-28T01:59:21.616Z,95864.63
2023-03-28T02:02:16.468Z,95871.50
2023-03-28T02:04:45.236Z,95872.75
2023-03-28T02:07:13.227Z,95875.91
2023-03-28T02:10:03.822Z,95879.09
2023-03-28T02:13:08.151Z,95885.00
2023-03-28T02:15:48.898Z,95885.00
2023-03-28T02:18:51.168Z,95883.94
2023-03-28T02:22:14.103Z,95882.41
2023-03-28T02:25:04.166Z,95882.19
2023-03-28T02:28:02.476Z,95892.03
2023-03-28T02:30:36.811Z,95893.41
2023-03-28T02:33:08.600Z,95898.91
2023-03-28T02:35:57.114Z,95892.25
2023-03-28T02:38:37.553Z,95893.94
2023-03-28T02:41:42.480Z,95890.81
2023-03-28T02:44:27.346Z,95890.38
2023-03-28T02:47:18.529Z,95891.59
2023-03-28T02:50:09.251Z,95888.81
2023-03-28T02:52:58.493Z,95901.09
2023-03-28T02:55:56.377Z,95898.97
2023-03-28T02:59:07.197Z,95901.06
2023-03-28T03:01:36.563Z,95909.59
2023-03-28T03:04:03.727Z,95904.19
2023-03-28T03:06:30.270Z,95916.47
2023-03-28T03:08:56.965Z,95915.78
2023-03-28T03:11:27.968Z,95911.47
2023-03-28T03:13:57.184Z,95914.00
2023-03-28T03:16:23.808Z,95916.25
2023-03-28T03:18:50.772Z,95909.13
2023-03-28T03:21:17.881Z,95907.84
2023-03-28T03:23:44.456Z,95907.97
2023-03-28T03:26:11.132Z,95912.72
2023-03-28T03:28:41.193Z,95914.19
2023-03-28T03:31:08.559Z,95911.63
2023-03-28T03:33:35.257Z,95913.72
2023-03-28T03:36:05.744Z,95926.25
2023-03-28T03:38:33.213Z,95918.88
2023-03-28T03:41:01.167Z,95919.25
2023-03-28T03:43:28.381Z,95915.72
2023-03-28T03:45:56.333Z,95929.63
2023-03-28T03:48:23.200Z,95937.22
2023-03-28T03:50:55.980Z,95950.31
2023-03-28T03:53:22.747Z,95945.09
2023-03-28T03:56:01.739Z,95938.59
2023-03-28T03:58:36.555Z,95938.13
2023-03-28T04:01:09.750Z,95947.03
2023-03-28T04:03:37.603Z,95946.13
2023-03-28T04:06:05.335Z,95953.22
2023-03-28T04:08:33.105Z,95949.09
2023-03-28T04:11:00.200Z,95955.63
2023-03-28T04:13:27.758Z,95961.84
2023-03-28T04:15:59.344Z,95968.16
2023-03-28T04:18:37.826Z,95978.97
2023-03-28T04:21:05.591Z,95964.75
2023-03-28T04:23:44.042Z,95966.75
2023-03-28T04:26:37.699Z,95976.41
2023-03-28T04:29:06.779Z,95975.47
2023-03-28T04:31:39.569Z,95977.03
2023-03-28T04:34:39.158Z,95975.94
2023-03-28T04:37:09.137Z,95974.16
2023-03-28T04:39:49.636Z,95987.25
2023-03-28T04:42:35.652Z,95980.78
2023-03-28T04:45:31.360Z,95979.69
2023-03-28T04:48:04.851Z,95988.06
2023-03-28T04:50:32.472Z,95982.00
2023-03-28T04:53:00.235Z,95981.91
2023-03-28T04:55:26.785Z,95983.72
2023-03-28T04:57:53.648Z,95988.72
2023-03-28T05:00:22.524Z,95992.72
2023-03-28T05:03:07.155Z,95989.09
2023-03-28T05:05:41.371Z,95994.50
2023-03-28T05:08:12.898Z,95996.16
2023-03-28T05:10:39.920Z,95999.69
2023-03-28T05:13:07.942Z,96008.00
2023-03-28T05:15:42.460Z,96014.41
2023-03-28T05:18:27.833Z,96013.13
2023-03-28T05:20:54.560Z,96014.59
2023-03-28T05:23:22.476Z,96014.25
2023-03-28T05:25:53.385Z,96020.91
2023-03-28T05:28:21.461Z,96010.25
2023-03-28T05:30:51.290Z,96019.13
2023-03-28T05:33:18.221Z,96028.63
2023-03-28T05:35:46.450Z,96030.88
2023-03-28T05:38:14.400Z,96027.72
2023-03-28T05:40:42.127Z,96033.91
2023-03-28T05:43:08.732Z,96033.50
2023-03-28T05:45:35.887Z,96028.66
2023-03-28T05:48:28.658Z,96038.72
2023-03-28T05:50:55.527Z,96037.13
2023-03-28T05:53:22.240Z,96047.81
2023-03-28T05:55:50.003Z,96048.06
2023-03-28T05:58:18.227Z,96051.75
2023-03-28T06:00:44.780Z,96051.66
2023-03-28T06:03:16.385Z,96046.84
2023-03-28T06:05:45.042Z,96056.88
2023-03-28T06:08:19.372Z,96054.88
2023-03-28T06:10:46.546Z,96060.31
2023-03-28T06:13:24.509Z,96056.00
2023-03-28T06:15:51.657Z,96071.81
2023-03-28T06:18:21.850Z,96073.47
2023-03-28T06:20:49.656Z,96074.34
2023-03-28T06:23:16.537Z,96077.09
2023-03-28T06:25:43.834Z,96078.47
2023-03-28T06:28:11.741Z,96085.00
2023-03-28T06:30:58.640Z,96078.13
2023-03-28T06:33:25.814Z,96080.38
2023-03-28T06:35:52.413Z,96086.44
2023-03-28T06:38:19.178Z,96083.50
2023-03-28T06:40:50.305Z,96070.88
2023-03-28T06:43:16.982Z,96086.00
2023-03-28T06:45:46.874Z,96086.44
2023-03-28T06:48:14.743Z,96086.75
2023-03-28T06:51:00.506Z,96098.06
2023-03-28T06:53:28.167Z,96095.94
2023-03-28T06:55:55.661Z,96099.53
2023-03-28T06:58:23.379Z,96102.97
2023-03-28T07:00:58.431Z,96101.09
2023-03-28T07:03:43.802Z,96112.22
2023-03-28T07:06:13.291Z,96113.03
2023-03-28T07:08:39.897Z,96118.66
2023-03-28T07:11:06.842Z,96117.31
2023-03-28T07:13:34.074Z,96124.47
2023-03-28T07:16:12.288Z,96114.94
2023-03-28T07:18:39.085Z,96139.59
2023-03-28T07:21:11.190Z,96136.31
2023-03-28T07:23:39.336Z,96136.13
2023-03-28T07:26:07.335Z,96134.06
2023-03-28T07:28:34.499Z,96142.19
2023-03-28T07:31:04.499Z,96145.28
2023-03-28T07:33:37.475Z,96141.22
2023-03-28T07:36:21.143Z,96153.84
2023-03-28T07:38:55.122Z,96156.28
2023-03-28T07:41:24.425Z,96156.06
2023-03-28T07:43:51.034Z,96160.28
2023-03-28T07:46:17.943Z,96163.78
2023-03-28T07:48:46.732Z,96161.09
2023-03-28T07:51:14.656Z,96157.09
2023-03-28T07:53:41.388Z,96164.81
2023-03-28T07:56:12.450Z,96160.63
2023-03-28T07:58:57.673Z,96164.06
2023-03-28T08:01:24.928Z,96165.94
2023-03-28T08:04:03.372Z,96155.41
2023-03-28T08:06:42.493Z,96162.53
2023-03-28T08:09:11.708Z,96171.75
2023-03-28T08:11:44.242Z,96171.56
2023-03-28T08:14:17.184Z,96176.56
2023-03-28T08:16:45.328Z,96174.31
2023-03-28T08:19:13.151Z,96180.69
2023-03-28T08:22:07.658Z,96174.38
2023-03-28T08:24:41.687Z,96179.53
2023-03-28T08:27:14.026Z,96178.19
2023-03-28T08:29:42.920Z,96174.66
2023-03-28T08:32:10.590Z,96184.69
2023-03-28T08:34:37.989Z,96185.44
2023-03-28T08:37:10.872Z,96197.22
2023-03-28T08:39:39.666Z,96182.53
2023-03-28T08:42:39.605Z,96190.38
2023-03-28T08:45:13.236Z,96197.06
2023-03-28T08:47:59.013Z,96191.47
2023-03-28T08:53:30.539Z,96191.19
2023-03-28T08:55:59.156Z,96199.31
2023-03-28T08:58:34.568Z,96194.78
2023-03-28T09:01:02.047Z,96195.09
2023-03-28T09:03:36.735Z,96184.94
2023-03-28T09:06:33.281Z,96187.53
2023-03-28T09:09:32.266Z,96185.28
2023-03-28T09:12:39.107Z,96200.22
2023-03-28T09:15:14.839Z,96203.38
2023-03-28T09:18:06.570Z,96192.34
2023-03-28T09:20:39.549Z,96189.78
2023-03-28T09:23:42.660Z,96200.88
2023-03-28T09:26:35.879Z,96198.59
2023-03-28T09:29:11.740Z,96201.84
2023-03-28T09:31:44.638Z,96191.41
2023-03-28T09:34:23.773Z,96200.06
2023-03-28T09:36:56.403Z,96193.88
2023-03-28T09:39:30.359Z,96201.94
2023-03-28T09:42:06.974Z,96196.41
2023-03-28T09:45:28.232Z,96204.47
2023-03-28T09:48:33.562Z,96203.41
2023-03-28T09:51:06.400Z,96206.25
2023-03-28T09:53:37.609Z,96194.16
2023-03-28T09:56:17.837Z,96202.59
2023-03-28T09:59:15.138Z,96201.34
2023-03-28T10:01:50.689Z,96194.97
2023-03-28T10:04:38.097Z,96193.72
2023-03-28T10:07:43.474Z,96188.19
2023-03-28T10:10:23.425Z,96201.75
2023-03-28T10:13:02.414Z,96188.72
2023-03-28T10:15:41.283Z,96194.03
2023-03-28T10:18:21.570Z,96192.13
2023-03-28T10:21:24.010Z,96199.84
2023-03-28T10:24:08.006Z,96197.84
2023-03-28T10:26:36.389Z,96189.75
2023-03-28T10:29:08.498Z,96190.66
2023-03-28T10:31:39.675Z,96195.19
2023-03-28T10:34:30.028Z,96189.75
2023-03-28T10:37:25.926Z,96179.03
2023-03-28T10:40:30.079Z,96188.88
2023-03-28T10:43:40.537Z,96186.78
2023-03-28T10:46:18.840Z,96189.66
2023-03-28T10:49:16.983Z,96193.53
2023-03-28T10:51:49.432Z,96193.66
2023-03-28T10:54:19.625Z,96189.19
2023-03-28T10:57:07.633Z,96182.06
2023-03-28T11:00:07.160Z,96182.59
2023-03-28T11:02:51.645Z,96174.38
2023-03-28T11:05:37.490Z,96165.59
2023-03-28T11:08:26.841Z,96172.88
2023-03-28T11:11:31.690Z,96178.81
2023-03-28T11:14:01.832Z,96164.81
2023-03-28T11:16:53.258Z,96166.78
2023-03-28T11:20:17.704Z,96166.75
2023-03-28T11:23:06.488Z,96170.31
2023-03-28T11:26:13.154Z,96154.59
2023-03-28T11:29:18.398Z,96157.53
2023-03-28T11:32:08.810Z,96158.50
2023-03-28T11:34:46.292Z,96162.88
2023-03-28T11:37:22.642Z,96159.44
2023-03-28T11:40:01.304Z,96165.41
2023-03-28T11:43:01.480Z,96146.72
2023-03-28T11:45:52.959Z,96143.25
2023-03-28T11:48:46.178Z,96143.19
2023-03-28T11:51:22.062Z,96123.84
2023-03-28T11:54:16.163Z,96110.31
2023-03-28T11:56:53.466Z,96110.97
2023-03-28T11:59:40.412Z,96121.03
2023-03-28T12:02:35.724Z,96116.34
2023-03-28T12:05:19.254Z,96122.38
2023-03-28T12:07:56.551Z,96124.56
2023-03-28T12:10:36.182Z,96120.66
2023-03-28T12:13:19.571Z,96107.78
2023-03-28T12:16:03.871Z,96102.63
2023-03-28T12:18:38.863Z,96098.94
2023-03-28T12:21:08.960Z,96094.94
2023-03-28T12:24:25.880Z,96094.19
2023-03-28T12:27:12.719Z,96096.66
2023-03-28T12:29:50.281Z,96088.13
2023-03-28T12:32:34.951Z,96082.03
2023-03-28T12:35:29.616Z,96071.78
2023-03-28T12:38:20.160Z,96087.75
2023-03-28T12:40:59.598Z,96077.63
2023-03-28T12:43:53.982Z,96082.31
2023-03-28T12:46:49.587Z,96078.25
2023-03-28T12:49:33.127Z,96088.22
2023-03-28T12:52:12.192Z,96085.06
2023-03-28T12:55:02.194Z,96088.31
2023-03-28T12:57:47.494Z,96076.75
2023-03-28T13:00:51.643Z,96087.25
2023-03-28T13:03:42.270Z,96093.72
2023-03-28T13:06:26.547Z,96089.75
2023-03-28T13:09:05.662Z,96089.34
2023-03-28T13:11:35.467Z,96071.28
2023-03-28T13:14:27.784Z,96061.44
2023-03-28T13:17:25.827Z,96074.25
2023-03-28T13:20:12.689Z,96071.28
2023-03-28T13:23:02.094Z,96081.94
2023-03-28T13:25:32.367Z,96071.41
2023-03-28T13:28:19.027Z,96075.78
2023-03-28T13:30:46.881Z,96061.09
2023-03-28T13:33:32.429Z,96060.72
2023-03-28T13:35:58.992Z,96057.94
2023-03-28T13:38:28.634Z,96049.28
2023-03-28T13:41:09.105Z,96035.81
2023-03-28T13:43:46.664Z,96026.25
2023-03-28T13:46:28.369Z,96030.69
2023-03-28T13:49:02.825Z,96040.53
2023-03-28T13:52:07.662Z,96032.25
2023-03-28T13:54:34.123Z,96027.94
2023-03-28T13:57:14.912Z,96020.41
2023-03-28T13:59:49.349Z,96026.00
2023-03-28T14:02:37.933Z,96023.34
2023-03-28T14:05:19.622Z,96024.78
2023-03-28T14:07:47.158Z,96025.13
2023-03-28T14:10:30.298Z,96022.88
2023-03-28T14:13:04.037Z,96014.34
2023-03-28T14:15:35.253Z,96009.66
2023-03-28T14:18:03.410Z,96008.66
2023-03-28T14:20:32.080Z,96001.50
2023-03-28T14:23:01.041Z,96002.94
2023-03-28T14:25:28.724Z,96006.06
2023-03-28T14:27:57.201Z,96004.53
2023-03-28T14:30:37.183Z,96008.16
2023-03-28T14:33:12.035Z,96018.41
2023-03-28T14:35:47.808Z,96009.81
2023-03-28T14:38:28.033Z,96016.38
2023-03-28T14:40:55.871Z,96017.09
2023-03-28T14:43:30.386Z,96012.38
2023-03-28T14:46:02.906Z,96007.22
2023-03-28T14:48:32.156Z,96002.44
2023-03-28T14:51:06.005Z,96005.88
2023-03-28T14:53:42.582Z,96010.97
2023-03-28T14:56:12.813Z,96011.88
2023-03-28T14:58:42.494Z,96014.00
2023-03-28T15:01:13.465Z,96004.53
2023-03-28T15:03:45.795Z,96005.59
2023-03-28T15:06:18.528Z,96008.19
2023-03-28T15:08:45.761Z,96005.56
2023-03-28T15:11:37.028Z,96007.78
2023-03-28T15:14:07.044Z,96005.84
2023-03-28T15:16:38.338Z,96002.44
2023-03-28T15:19:39.982Z,96000.00
2023-03-28T15:22:24.081Z,96000.03
2023-03-28T15:24:50.896Z,95989.09
2023-03-28T15:27:28.601Z,95996.75
2023-03-28T15:29:55.828Z,95987.88
2023-03-28T15:32:22.645Z,95986.00
2023-03-28T15:35:00.718Z,95982.47
2023-03-28T15:37:27.922Z,95984.72
2023-03-28T15:40:10.574Z,95981.16
2023-03-28T15:42:37.387Z,95975.22
2023-03-28T15:45:19.653Z,95978.31
2023-03-28T15:47:55.915Z,95981.91
2023-03-28T15:50:26.238Z,95969.28
2023-03-28T15:52:57.991Z,95972.38
2023-03-28T15:55:26.982Z,95968.38
2023-03-28T15:57:56.225Z,95965.25
2023-03-28T16:00:37.245Z,95967.09
2023-03-28T16:03:16.319Z,95960.41
2023-03-28T16:05:49.088Z,95954.97
2023-03-28T16:08:30.984Z,95959.09
2023-03-28T16:10:58.531Z,95956.81
2023-03-28T16:13:37.090Z,95950.59
2023-03-28T16:16:29.222Z,95953.66
2023-03-28T16:19:21.515Z,95955.09
2023-03-28T16:21:48.656Z,95954.34
2023-03-28T16:24:15.378Z,95952.78
2023-03-28T16:26:42.007Z,95947.63
2023-03-28T16:29:08.575Z,95952.47
2023-03-28T16:31:35.236Z,95946.34
2023-03-28T16:34:01.966Z,95940.78
2023-03-28T16:36:28.609Z,95953.47
2023-03-28T16:38:55.207Z,95953.31
2023-03-28T16:41:21.794Z,95959.69
2023-03-28T16:43:48.375Z,95952.41
2023-03-28T16:46:15.027Z,95956.72
2023-03-28T16:48:41.655Z,95961.19
2023-03-28T16:51:08.164Z,95961.91
2023-03-28T16:53:36.285Z,95959.47
2023-03-28T16:56:03.927Z,95950.25
2023-03-28T16:58:31.100Z,95949.44
2023-03-28T17:00:58.346Z,95955.50
2023-03-28T17:03:25.092Z,95955.09
2023-03-28T17:05:51.743Z,95948.19
2023-03-28T17:08:18.328Z,95950.50
2023-03-28T17:10:44.969Z,95946.25
2023-03-28T17:13:11.517Z,95941.41
2023-03-28T17:15:38.110Z,95940.44
2023-03-28T17:18:05.633Z,95937.28
2023-03-28T17:20:32.393Z,95934.16
2023-03-28T17:22:59.084Z,95932.50
2023-03-28T17:25:26.528Z,95934.88
2023-03-28T17:27:53.115Z,95925.38
2023-03-28T17:30:19.679Z,95923.19
2023-03-28T17:32:46.581Z,95923.63
2023-03-28T17:35:14.636Z,95927.22
2023-03-28T17:37:41.225Z,95937.03
2023-03-28T17:40:08.349Z,95937.84
2023-03-28T17:42:35.075Z,95931.22
2023-03-28T17:45:01.658Z,95928.88
2023-03-28T17:47:28.256Z,95928.31
2023-03-28T17:49:56.941Z,95923.91
2023-03-28T17:52:24.361Z,95924.31
2023-03-28T17:54:51.598Z,95921.59
2023-03-28T17:57:18.513Z,95925.44
2023-03-28T17:59:45.550Z,95920.16
2023-03-28T18:02:12.154Z,95916.28
2023-03-28T18:04:39.842Z,95924.13
2023-03-28T18:07:18.320Z,95917.22
2023-03-28T18:09:45.457Z,95914.19
2023-03-28T18:12:13.101Z,95903.56
2023-03-28T18:14:39.705Z,95909.19
2023-03-28T18:17:06.608Z,95902.56
2023-03-28T18:19:33.172Z,95902.13
2023-03-28T18:22:00.637Z,95900.09
2023-03-28T18:24:27.938Z,95906.66
2023-03-28T18:26:54.682Z,95894.75
2023-03-28T18:29:21.670Z,95900.25
2023-03-28T18:31:48.476Z,95896.88
2023-03-28T18:34:15.304Z,95904.53
2023-03-28T18:36:42.219Z,95896.66
2023-03-28T18:39:10.242Z,95902.66
2023-03-28T18:41:37.554Z,95893.28
2023-03-28T18:44:05.153Z,95885.53
2023-03-28T18:46:31.890Z,95881.34
2023-03-28T18:49:00.116Z,95884.72
2023-03-28T18:51:27.790Z,95877.34
2023-03-28T18:53:54.692Z,95871.94
2023-03-28T18:56:21.931Z,95880.09
2023-03-28T18:58:50.675Z,95874.41
2023-03-28T19:01:18.523Z,95868.28
2023-03-28T19:03:47.075Z,95869.91
2023-03-28T19:06:15.190Z,95876.81
2023-03-28T19:08:42.334Z,95869.59
2023-03-28T19:11:15.335Z,95874.81
2023-03-28T19:13:42.369Z,95873.97
2023-03-28T19:16:12.426Z,95865.59
2023-03-28T19:18:40.490Z,95868.38
2023-03-28T19:21:08.556Z,95870.47
2023-03-28T19:23:36.783Z,95858.19
2023-03-28T19:26:06.661Z,95857.25
2023-03-28T19:28:33.226Z,95859.41
2023-03-28T19:31:05.343Z,95854.31
2023-03-28T19:33:32.517Z,95856.34
2023-03-28T19:35:59.532Z,95857.44
2023-03-28T19:38:27.317Z,95850.44
2023-03-28T19:41:01.691Z,95841.91
2023-03-28T19:43:29.527Z,95823.88
2023-03-28T19:46:04.337Z,95836.22
2023-03-28T19:48:31.988Z,95827.09
2023-03-28T19:50:58.748Z,95828.75
2023-03-28T19:53:25.397Z,95833.13
2023-03-28T19:55:53.603Z,95829.09
2023-03-28T19:58:20.216Z,95828.84
2023-03-28T20:00:47.749Z,95825.41
2023-03-28T20:03:14.555Z,95821.84
2023-03-28T20:05:42.518Z,95818.44
2023-03-28T20:08:09.273Z,95812.28
2023-03-28T20:10:54.126Z,95806.94
2023-03-28T20:13:20.820Z,95810.66
2023-03-28T20:15:47.527Z,95809.00
2023-03-28T20:18:20.288Z,95811.50
2023-03-28T20:20:51.685Z,95811.00
2023-03-28T20:23:20.252Z,95813.50
2023-03-28T20:25:47.644Z,95818.38
2023-03-28T20:28:14.462Z,95814.81
2023-03-28T20:30:41.875Z,95812.53
2023-03-28T20:33:08.682Z,95803.78
2023-03-28T20:35:35.948Z,95805.94
2023-03-28T20:38:02.816Z,95801.56
2023-03-28T20:40:29.445Z,95802.56
2023-03-28T20:42:57.402Z,95798.34
2023-03-28T20:45:24.058Z,95802.94
2023-03-28T20:47:56.252Z,95803.41
2023-03-28T20:50:33.753Z,95794.91
2023-03-28T20:53:01.911Z,95793.44
2023-03-28T20:55:29.398Z,95791.91
2023-03-28T20:57:56.481Z,95789.88
2023-03-28T21:00:24.852Z,95787.50
2023-03-28T21:02:53.669Z,95789.03
2023-03-28T21:05:21.975Z,95788.00
2023-03-28T21:07:49.446Z,95793.81
2023-03-28T21:10:16.619Z,95786.84
2023-03-28T21:12:43.770Z,95788.59
2023-03-28T21:15:15.303Z,95776.88
2023-03-28T21:17:41.962Z,95770.22
2023-03-28T21:20:10.358Z,95767.38
2023-03-28T21:22:37.999Z,95768.00
2023-03-28T21:25:08.430Z,95756.13
2023-03-28T21:27:36.740Z,95752.13
2023-03-28T21:30:07.611Z,95749.97
2023-03-28T21:32:35.775Z,95755.78
2023-03-28T21:35:04.135Z,95767.69
2023-03-28T21:37:31.150Z,95758.88
2023-03-28T21:39:57.849Z,95754.81
2023-03-28T21:42:24.805Z,95758.13
2023-03-28T21:44:51.906Z,95757.75
2023-03-28T21:47:18.440Z,95758.69
2023-03-28T21:49:45.940Z,95744.72
2023-03-28T21:52:12.772Z,95744.81
2023-03-28T21:54:39.299Z,95735.13
2023-03-28T21:57:05.909Z,95732.63
2023-03-28T21:59:32.465Z,95724.31
2023-03-28T22:01:59.251Z,95719.94
2023-03-28T22:04:27.825Z,95716.94
2023-03-28T22:06:55.372Z,95716.25
2023-03-28T22:09:21.911Z,95714.47
2023-03-28T22:11:48.844Z,95713.41
2023-03-28T22:14:15.455Z,95713.41
2023-03-28T22:16:42.537Z,95706.31
2023-03-28T22:19:09.565Z,95709.31
2023-03-28T22:21:36.964Z,95713.31
2023-03-28T22:24:06.152Z,95705.97
2023-03-28T22:26:32.836Z,95700.03
2023-03-28T22:28:59.465Z,95705.03
2023-03-28T22:31:27.099Z,95700.22
2023-03-28T22:33:54.235Z,95698.44
2023-03-28T22:36:21.719Z,95692.16
2023-03-28T22:38:48.446Z,95694.66
2023-03-28T22:41:14.987Z,95700.41
2023-03-28T22:43:45.003Z,95704.25
2023-03-28T22:46:16.372Z,95682.59
2023-03-28T22:48:43.964Z,95685.25
2023-03-28T22:51:15.694Z,95699.53
2023-03-28T22:53:42.453Z,95697.59
2023-03-28T22:56:09.088Z,95703.63
2023-03-28T22:58:36.162Z,95705.00
2023-03-28T23:01:04.113Z,95703.53
2023-03-28T23:03:31.091Z,95693.63
2023-03-28T23:06:01.768Z,95683.78
2023-03-28T23:08:28.440Z,95695.84
2023-03-28T23:10:55.222Z,95702.00
2023-03-28T23:13:21.772Z,95708.09
2023-03-28T23:15:48.527Z,95718.19
2023-03-28T23:18:16.341Z,95709.78
2023-03-28T23:20:43.575Z,95699.94
2023-03-28T23:23:11.966Z,95705.84
2023-03-28T23:25:39.006Z,95714.13
2023-03-28T23:28:05.732Z,95683.50
2023-03-28T23:30:32.296Z,95682.09
2023-03-28T23:32:58.877Z,95694.69
2023-03-28T23:35:25.980Z,95695.00
2023-03-28T23:37:53.218Z,95702.19
2023-03-28T23:40:20.544Z,95705.50
2023-03-28T23:42:47.064Z,95711.22
2023-03-28T23:45:15.084Z,95728.63
2023-03-28T23:47:42.853Z,95732.44
2023-03-28T23:50:10.430Z,95740.84
2023-03-28T23:52:37.235Z,95738.00
2023-03-28T23:55:04.050Z,95745.63
2023-03-28T23:57:30.662Z,95749.06
2023-03-28T23:59:57.206Z,95753.16
